Urb Puertas del Sol, Puerto Rico
Current Conditions -  °F | °C
As of 8:53 AM on Saturday 20 Dec 2014 (Local Time) from TJNR Reporting Station
Clear Clear  
Wind Chill: 81°   Ceiling: Unl
Heat Index: 84°   Visibility: 10mi
Dew Point: 70°   Wind: 8mph
Humidity: 69%   Direction: 80°E
Pressure: 30.07"   Gusts: NA
Location:  18.3304°N, 65.6573°W
Report Text: TJNR 201253Z AUTO 08007KT 10SM CLR 27/21 A3007 RMK AO2 SLP182 T02720211 $
Loading
Personal Weather Stations






























Interactive Weather Map New forecast layout! Learn more

10-Day Weather Forecast

Advertisements
Track Severe Weather on mobile